sensor_id;sensor_type;location;lat;lon;timestamp;P1;durP1;ratioP1;P2;durP2;ratioP2
15633;SDS011;14654;48.898;8.308;2023-03-05T00:02:03;20.73;;;16.93;;
15633;SDS011;14654;48.898;8.308;2023-03-05T00:04:28;23.37;;;18.37;;
15633;SDS011;14654;48.898;8.308;2023-03-05T00:06:53;21.57;;;17.17;;
15633;SDS011;14654;48.898;8.308;2023-03-05T00:09:19;20.83;;;16.63;;
15633;SDS011;14654;48.898;8.308;2023-03-05T00:11:45;20.43;;;17.37;;
15633;SDS011;14654;48.898;8.308;2023-03-05T00:14:10;21.20;;;16.63;;
15633;SDS011;14654;48.898;8.308;2023-03-05T00:16:36;20.23;;;16.83;;
15633;SDS011;14654;48.898;8.308;2023-03-05T00:19:02;22.60;;;17.70;;
15633;SDS011;14654;48.898;8.308;2023-03-05T00:21:32;24.23;;;18.37;;
15633;SDS011;14654;48.898;8.308;2023-03-05T00:24:03;22.23;;;17.30;;
15633;SDS011;14654;48.898;8.308;2023-03-05T00:26:35;21.33;;;16.30;;
15633;SDS011;14654;48.898;8.308;2023-03-05T00:29:02;21.07;;;16.83;;
15633;SDS011;14654;48.898;8.308;2023-03-05T00:31:29;19.80;;;15.70;;
15633;SDS011;14654;48.898;8.308;2023-03-05T00:33:58;20.37;;;16.53;;
15633;SDS011;14654;48.898;8.308;2023-03-05T00:36:38;21.10;;;16.07;;
15633;SDS011;14654;48.898;8.308;2023-03-05T00:39:08;19.93;;;15.77;;
15633;SDS011;14654;48.898;8.308;2023-03-05T00:41:34;20.93;;;16.10;;
15633;SDS011;14654;48.898;8.308;2023-03-05T00:44:00;19.60;;;15.23;;
15633;SDS011;14654;48.898;8.308;2023-03-05T00:46:25;21.37;;;16.80;;
15633;SDS011;14654;48.898;8.308;2023-03-05T00:48:51;22.07;;;16.43;;
15633;SDS011;14654;48.898;8.308;2023-03-05T00:51:17;21.60;;;15.77;;
15633;SDS011;14654;48.898;8.308;2023-03-05T00:53:43;20.57;;;15.40;;
15633;SDS011;14654;48.898;8.308;2023-03-05T00:56:09;20.77;;;15.57;;
15633;SDS011;14654;48.898;8.308;2023-03-05T00:58:34;22.77;;;16.67;;
15633;SDS011;14654;48.898;8.308;2023-03-05T01:01:00;18.77;;;15.43;;
15633;SDS011;14654;48.898;8.308;2023-03-05T01:03:26;19.43;;;15.63;;
15633;SDS011;14654;48.898;8.308;2023-03-05T01:05:52;20.47;;;16.03;;
15633;SDS011;14654;48.898;8.308;2023-03-05T01:08:18;18.37;;;14.80;;
15633;SDS011;14654;48.898;8.308;2023-03-05T01:10:44;21.00;;;14.90;;
15633;SDS011;14654;48.898;8.308;2023-03-05T01:13:09;19.13;;;14.40;;
15633;SDS011;14654;48.898;8.308;2023-03-05T01:15:34;17.73;;;14.07;;
15633;SDS011;14654;48.898;8.308;2023-03-05T01:17:59;20.37;;;15.30;;
15633;SDS011;14654;48.898;8.308;2023-03-05T01:20:25;19.27;;;14.80;;
15633;SDS011;14654;48.898;8.308;2023-03-05T01:22:50;18.27;;;14.27;;
15633;SDS011;14654;48.898;8.308;2023-03-05T01:25:16;19.90;;;15.57;;
15633;SDS011;14654;48.898;8.308;2023-03-05T01:27:42;19.67;;;14.87;;
15633;SDS011;14654;48.898;8.308;2023-03-05T01:30:09;20.43;;;14.77;;
15633;SDS011;14654;48.898;8.308;2023-03-05T01:32:36;23.47;;;16.20;;
15633;SDS011;14654;48.898;8.308;2023-03-05T01:35:02;21.93;;;15.23;;
15633;SDS011;14654;48.898;8.308;2023-03-05T01:37:29;20.23;;;15.57;;
15633;SDS011;14654;48.898;8.308;2023-03-05T01:39:54;21.70;;;15.80;;
15633;SDS011;14654;48.898;8.308;2023-03-05T01:42:20;20.07;;;15.10;;
15633;SDS011;14654;48.898;8.308;2023-03-05T01:44:58;20.83;;;14.53;;
15633;SDS011;14654;48.898;8.308;2023-03-05T01:47:26;18.97;;;14.77;;
15633;SDS011;14654;48.898;8.308;2023-03-05T01:49:51;18.27;;;13.60;;
15633;SDS011;14654;48.898;8.308;2023-03-05T01:52:19;19.43;;;13.97;;
15633;SDS011;14654;48.898;8.308;2023-03-05T01:54:48;18.70;;;13.97;;
15633;SDS011;14654;48.898;8.308;2023-03-05T01:57:19;18.43;;;13.17;;
15633;SDS011;14654;48.898;8.308;2023-03-05T01:59:51;16.73;;;12.80;;
15633;SDS011;14654;48.898;8.308;2023-03-05T02:02:21;17.70;;;13.80;;
15633;SDS011;14654;48.898;8.308;2023-03-05T02:07:51;17.60;;;13.47;;
15633;SDS011;14654;48.898;8.308;2023-03-05T02:10:25;17.17;;;13.27;;
15633;SDS011;14654;48.898;8.308;2023-03-05T02:13:04;18.47;;;14.27;;
15633;SDS011;14654;48.898;8.308;2023-03-05T02:15:32;17.53;;;13.63;;
15633;SDS011;14654;48.898;8.308;2023-03-05T02:17:58;17.73;;;13.00;;
15633;SDS011;14654;48.898;8.308;2023-03-05T02:20:26;17.23;;;13.00;;
15633;SDS011;14654;48.898;8.308;2023-03-05T02:22:53;16.73;;;13.23;;
15633;SDS011;14654;48.898;8.308;2023-03-05T02:25:20;16.20;;;13.07;;
15633;SDS011;14654;48.898;8.308;2023-03-05T02:27:52;20.37;;;14.20;;
15633;SDS011;14654;48.898;8.308;2023-03-05T02:30:21;17.70;;;13.37;;
15633;SDS011;14654;48.898;8.308;2023-03-05T02:32:46;17.73;;;14.10;;
15633;SDS011;14654;48.898;8.308;2023-03-05T02:35:12;15.70;;;13.57;;
15633;SDS011;14654;48.898;8.308;2023-03-05T02:37:37;17.07;;;12.97;;
15633;SDS011;14654;48.898;8.308;2023-03-05T02:40:03;17.47;;;13.77;;
15633;SDS011;14654;48.898;8.308;2023-03-05T02:42:29;19.53;;;14.30;;
15633;SDS011;14654;48.898;8.308;2023-03-05T02:44:57;21.50;;;14.47;;
15633;SDS011;14654;48.898;8.308;2023-03-05T02:47:24;18.43;;;14.30;;
15633;SDS011;14654;48.898;8.308;2023-03-05T02:49:49;19.40;;;13.93;;
15633;SDS011;14654;48.898;8.308;2023-03-05T02:52:15;19.83;;;14.37;;
15633;SDS011;14654;48.898;8.308;2023-03-05T02:54:40;19.50;;;15.27;;
15633;SDS011;14654;48.898;8.308;2023-03-05T02:57:05;19.77;;;14.73;;
15633;SDS011;14654;48.898;8.308;2023-03-05T02:59:31;18.53;;;15.57;;
15633;SDS011;14654;48.898;8.308;2023-03-05T03:01:56;19.47;;;15.57;;
15633;SDS011;14654;48.898;8.308;2023-03-05T03:04:21;21.63;;;15.20;;
15633;SDS011;14654;48.898;8.308;2023-03-05T03:06:47;19.40;;;14.63;;
15633;SDS011;14654;48.898;8.308;2023-03-05T03:09:12;21.50;;;15.90;;
15633;SDS011;14654;48.898;8.308;2023-03-05T03:11:37;18.67;;;15.43;;
15633;SDS011;14654;48.898;8.308;2023-03-05T03:14:02;21.00;;;15.80;;
15633;SDS011;14654;48.898;8.308;2023-03-05T03:16:28;20.53;;;16.00;;
15633;SDS011;14654;48.898;8.308;2023-03-05T03:18:53;22.40;;;16.33;;
15633;SDS011;14654;48.898;8.308;2023-03-05T03:21:20;21.50;;;16.07;;
15633;SDS011;14654;48.898;8.308;2023-03-05T03:23:47;20.33;;;15.20;;
15633;SDS011;14654;48.898;8.308;2023-03-05T03:26:12;21.90;;;15.60;;
15633;SDS011;14654;48.898;8.308;2023-03-05T03:28:38;21.00;;;16.70;;
15633;SDS011;14654;48.898;8.308;2023-03-05T03:31:03;24.50;;;16.73;;
15633;SDS011;14654;48.898;8.308;2023-03-05T03:33:28;22.27;;;16.23;;
15633;SDS011;14654;48.898;8.308;2023-03-05T03:35:54;21.30;;;16.07;;
15633;SDS011;14654;48.898;8.308;2023-03-05T03:38:19;21.43;;;15.37;;
15633;SDS011;14654;48.898;8.308;2023-03-05T03:40:44;21.33;;;16.73;;
15633;SDS011;14654;48.898;8.308;2023-03-05T03:43:10;21.43;;;16.43;;
15633;SDS011;14654;48.898;8.308;2023-03-05T03:45:38;23.20;;;16.90;;
15633;SDS011;14654;48.898;8.308;2023-03-05T03:48:05;22.80;;;16.00;;
15633;SDS011;14654;48.898;8.308;2023-03-05T03:50:30;21.37;;;15.53;;
15633;SDS011;14654;48.898;8.308;2023-03-05T03:52:55;21.77;;;15.67;;
15633;SDS011;14654;48.898;8.308;2023-03-05T03:55:21;19.97;;;15.27;;
15633;SDS011;14654;48.898;8.308;2023-03-05T03:57:46;20.80;;;16.00;;
15633;SDS011;14654;48.898;8.308;2023-03-05T04:00:12;21.93;;;16.10;;
15633;SDS011;14654;48.898;8.308;2023-03-05T04:02:38;22.17;;;16.37;;
15633;SDS011;14654;48.898;8.308;2023-03-05T04:05:03;21.47;;;15.50;;
15633;SDS011;14654;48.898;8.308;2023-03-05T04:07:29;18.97;;;15.17;;
15633;SDS011;14654;48.898;8.308;2023-03-05T04:09:54;19.00;;;14.43;;
15633;SDS011;14654;48.898;8.308;2023-03-05T04:12:20;19.23;;;14.70;;
15633;SDS011;14654;48.898;8.308;2023-03-05T04:14:46;22.67;;;15.47;;
15633;SDS011;14654;48.898;8.308;2023-03-05T04:17:13;20.00;;;15.07;;
15633;SDS011;14654;48.898;8.308;2023-03-05T04:19:39;20.00;;;14.80;;
15633;SDS011;14654;48.898;8.308;2023-03-05T04:22:06;22.13;;;15.30;;
15633;SDS011;14654;48.898;8.308;2023-03-05T04:24:34;20.43;;;15.53;;
15633;SDS011;14654;48.898;8.308;2023-03-05T04:26:59;19.30;;;14.73;;
15633;SDS011;14654;48.898;8.308;2023-03-05T04:29:25;21.27;;;15.87;;
15633;SDS011;14654;48.898;8.308;2023-03-05T04:31:50;22.47;;;15.93;;
15633;SDS011;14654;48.898;8.308;2023-03-05T04:34:16;24.13;;;15.27;;
15633;SDS011;14654;48.898;8.308;2023-03-05T04:36:41;21.87;;;15.57;;
15633;SDS011;14654;48.898;8.308;2023-03-05T04:39:06;21.77;;;15.83;;
15633;SDS011;14654;48.898;8.308;2023-03-05T04:41:32;22.77;;;15.17;;
15633;SDS011;14654;48.898;8.308;2023-03-05T04:43:57;23.53;;;15.97;;
15633;SDS011;14654;48.898;8.308;2023-03-05T04:46:22;22.40;;;15.77;;
15633;SDS011;14654;48.898;8.308;2023-03-05T04:48:48;20.57;;;15.57;;
15633;SDS011;14654;48.898;8.308;2023-03-05T04:51:13;20.97;;;15.63;;
15633;SDS011;14654;48.898;8.308;2023-03-05T04:53:38;20.67;;;14.13;;
15633;SDS011;14654;48.898;8.308;2023-03-05T04:56:04;21.73;;;15.10;;
15633;SDS011;14654;48.898;8.308;2023-03-05T04:58:29;19.20;;;14.70;;
15633;SDS011;14654;48.898;8.308;2023-03-05T05:01:02;20.47;;;14.40;;
15633;SDS011;14654;48.898;8.308;2023-03-05T05:03:28;20.20;;;14.43;;
15633;SDS011;14654;48.898;8.308;2023-03-05T05:05:55;21.53;;;15.67;;
15633;SDS011;14654;48.898;8.308;2023-03-05T05:08:22;20.23;;;14.63;;
15633;SDS011;14654;48.898;8.308;2023-03-05T05:10:57;18.87;;;13.63;;
15633;SDS011;14654;48.898;8.308;2023-03-05T05:13:24;21.47;;;14.40;;
15633;SDS011;14654;48.898;8.308;2023-03-05T05:15:49;18.63;;;14.20;;
15633;SDS011;14654;48.898;8.308;2023-03-05T05:18:15;21.27;;;14.60;;
15633;SDS011;14654;48.898;8.308;2023-03-05T05:20:40;20.77;;;14.43;;
15633;SDS011;14654;48.898;8.308;2023-03-05T05:23:06;19.77;;;14.03;;
15633;SDS011;14654;48.898;8.308;2023-03-05T05:25:31;21.03;;;14.23;;
15633;SDS011;14654;48.898;8.308;2023-03-05T05:27:56;17.70;;;13.70;;
15633;SDS011;14654;48.898;8.308;2023-03-05T05:30:22;18.70;;;13.87;;
15633;SDS011;14654;48.898;8.308;2023-03-05T05:32:47;19.23;;;14.57;;
15633;SDS011;14654;48.898;8.308;2023-03-05T05:35:12;20.07;;;13.87;;
15633;SDS011;14654;48.898;8.308;2023-03-05T05:37:38;19.20;;;14.57;;
15633;SDS011;14654;48.898;8.308;2023-03-05T05:40:03;19.60;;;14.30;;
15633;SDS011;14654;48.898;8.308;2023-03-05T05:42:29;21.40;;;15.13;;
15633;SDS011;14654;48.898;8.308;2023-03-05T05:44:55;20.50;;;14.50;;
15633;SDS011;14654;48.898;8.308;2023-03-05T05:47:20;17.97;;;13.40;;
15633;SDS011;14654;48.898;8.308;2023-03-05T05:49:45;19.90;;;14.27;;
15633;SDS011;14654;48.898;8.308;2023-03-05T05:52:11;19.00;;;13.87;;
15633;SDS011;14654;48.898;8.308;2023-03-05T05:54:37;20.13;;;14.23;;
15633;SDS011;14654;48.898;8.308;2023-03-05T05:57:03;18.33;;;14.03;;
15633;SDS011;14654;48.898;8.308;2023-03-05T05:59:28;17.10;;;13.40;;
15633;SDS011;14654;48.898;8.308;2023-03-05T06:01:53;17.03;;;12.73;;
15633;SDS011;14654;48.898;8.308;2023-03-05T06:04:19;19.23;;;13.67;;
15633;SDS011;14654;48.898;8.308;2023-03-05T06:06:44;19.43;;;13.80;;
15633;SDS011;14654;48.898;8.308;2023-03-05T06:09:10;20.33;;;14.93;;
15633;SDS011;14654;48.898;8.308;2023-03-05T06:11:36;21.53;;;15.37;;
15633;SDS011;14654;48.898;8.308;2023-03-05T06:14:02;20.30;;;14.47;;
15633;SDS011;14654;48.898;8.308;2023-03-05T06:16:28;18.40;;;14.10;;
15633;SDS011;14654;48.898;8.308;2023-03-05T06:18:53;19.03;;;15.30;;
15633;SDS011;14654;48.898;8.308;2023-03-05T06:21:19;22.70;;;15.80;;
15633;SDS011;14654;48.898;8.308;2023-03-05T06:23:46;21.57;;;15.50;;
15633;SDS011;14654;48.898;8.308;2023-03-05T06:26:13;20.63;;;14.57;;
15633;SDS011;14654;48.898;8.308;2023-03-05T06:28:40;21.10;;;15.73;;
15633;SDS011;14654;48.898;8.308;2023-03-05T06:31:06;21.20;;;15.93;;
15633;SDS011;14654;48.898;8.308;2023-03-05T06:33:32;23.53;;;16.03;;
15633;SDS011;14654;48.898;8.308;2023-03-05T06:35:58;24.57;;;16.70;;
15633;SDS011;14654;48.898;8.308;2023-03-05T06:38:24;22.33;;;16.17;;
15633;SDS011;14654;48.898;8.308;2023-03-05T06:40:50;21.67;;;15.97;;
15633;SDS011;14654;48.898;8.308;2023-03-05T06:43:15;22.87;;;17.23;;
15633;SDS011;14654;48.898;8.308;2023-03-05T06:45:41;25.30;;;18.50;;
15633;SDS011;14654;48.898;8.308;2023-03-05T06:48:06;26.33;;;18.60;;
15633;SDS011;14654;48.898;8.308;2023-03-05T06:50:34;26.20;;;19.67;;
15633;SDS011;14654;48.898;8.308;2023-03-05T06:53:00;29.03;;;20.07;;
15633;SDS011;14654;48.898;8.308;2023-03-05T06:55:26;27.40;;;20.30;;
15633;SDS011;14654;48.898;8.308;2023-03-05T06:57:51;26.90;;;20.03;;
15633;SDS011;14654;48.898;8.308;2023-03-05T07:00:17;26.47;;;20.97;;
15633;SDS011;14654;48.898;8.308;2023-03-05T07:02:42;29.07;;;20.80;;
15633;SDS011;14654;48.898;8.308;2023-03-05T07:05:08;31.20;;;22.60;;
15633;SDS011;14654;48.898;8.308;2023-03-05T07:07:34;30.60;;;21.43;;
15633;SDS011;14654;48.898;8.308;2023-03-05T07:09:59;29.53;;;21.37;;
15633;SDS011;14654;48.898;8.308;2023-03-05T07:12:24;26.63;;;20.73;;
15633;SDS011;14654;48.898;8.308;2023-03-05T07:14:50;30.73;;;21.47;;
15633;SDS011;14654;48.898;8.308;2023-03-05T07:17:16;30.03;;;22.07;;
15633;SDS011;14654;48.898;8.308;2023-03-05T07:19:41;27.70;;;20.63;;
15633;SDS011;14654;48.898;8.308;2023-03-05T07:22:07;31.03;;;21.50;;
15633;SDS011;14654;48.898;8.308;2023-03-05T07:24:33;27.97;;;21.37;;
15633;SDS011;14654;48.898;8.308;2023-03-05T07:26:59;29.87;;;21.17;;
15633;SDS011;14654;48.898;8.308;2023-03-05T07:29:25;28.10;;;21.33;;
15633;SDS011;14654;48.898;8.308;2023-03-05T07:31:51;30.17;;;22.03;;
15633;SDS011;14654;48.898;8.308;2023-03-05T07:34:17;32.13;;;24.27;;
15633;SDS011;14654;48.898;8.308;2023-03-05T07:36:43;35.07;;;26.93;;
15633;SDS011;14654;48.898;8.308;2023-03-05T07:39:09;34.50;;;25.83;;
15633;SDS011;14654;48.898;8.308;2023-03-05T07:41:35;33.73;;;24.97;;
15633;SDS011;14654;48.898;8.308;2023-03-05T07:44:01;34.73;;;24.57;;
15633;SDS011;14654;48.898;8.308;2023-03-05T07:46:28;30.10;;;22.07;;
15633;SDS011;14654;48.898;8.308;2023-03-05T07:48:55;27.73;;;21.83;;
15633;SDS011;14654;48.898;8.308;2023-03-05T07:51:22;26.73;;;22.00;;
15633;SDS011;14654;48.898;8.308;2023-03-05T07:53:48;28.93;;;21.97;;
15633;SDS011;14654;48.898;8.308;2023-03-05T07:59:09;25.60;;;20.67;;
15633;SDS011;14654;48.898;8.308;2023-03-05T08:01:36;27.97;;;21.47;;
15633;SDS011;14654;48.898;8.308;2023-03-05T08:04:02;31.53;;;23.07;;
15633;SDS011;14654;48.898;8.308;2023-03-05T08:06:28;33.33;;;23.77;;
15633;SDS011;14654;48.898;8.308;2023-03-05T08:08:54;30.77;;;24.27;;
15633;SDS011;14654;48.898;8.308;2023-03-05T08:11:20;32.17;;;23.90;;
15633;SDS011;14654;48.898;8.308;2023-03-05T08:13:45;25.73;;;21.07;;
15633;SDS011;14654;48.898;8.308;2023-03-05T08:16:12;29.67;;;23.50;;
15633;SDS011;14654;48.898;8.308;2023-03-05T08:18:40;32.90;;;23.80;;
15633;SDS011;14654;48.898;8.308;2023-03-05T08:21:05;31.83;;;24.33;;
15633;SDS011;14654;48.898;8.308;2023-03-05T08:23:31;29.83;;;22.93;;
15633;SDS011;14654;48.898;8.308;2023-03-05T08:25:58;29.40;;;22.23;;
15633;SDS011;14654;48.898;8.308;2023-03-05T08:28:24;28.00;;;22.80;;
15633;SDS011;14654;48.898;8.308;2023-03-05T08:30:49;30.03;;;24.20;;
15633;SDS011;14654;48.898;8.308;2023-03-05T08:33:15;31.20;;;24.67;;
15633;SDS011;14654;48.898;8.308;2023-03-05T08:35:43;28.80;;;23.13;;
15633;SDS011;14654;48.898;8.308;2023-03-05T08:38:09;29.30;;;22.90;;
15633;SDS011;14654;48.898;8.308;2023-03-05T08:40:34;29.37;;;23.20;;
15633;SDS011;14654;48.898;8.308;2023-03-05T08:42:59;26.80;;;21.83;;
15633;SDS011;14654;48.898;8.308;2023-03-05T08:45:25;27.47;;;21.77;;
15633;SDS011;14654;48.898;8.308;2023-03-05T08:47:52;27.47;;;20.93;;
15633;SDS011;14654;48.898;8.308;2023-03-05T08:50:18;24.17;;;19.83;;
15633;SDS011;14654;48.898;8.308;2023-03-05T08:52:46;22.60;;;18.90;;
15633;SDS011;14654;48.898;8.308;2023-03-05T08:55:11;22.03;;;18.40;;
15633;SDS011;14654;48.898;8.308;2023-03-05T08:57:36;25.63;;;21.93;;
15633;SDS011;14654;48.898;8.308;2023-03-05T09:00:02;25.93;;;21.17;;
15633;SDS011;14654;48.898;8.308;2023-03-05T09:02:27;31.93;;;23.53;;
15633;SDS011;14654;48.898;8.308;2023-03-05T09:04:54;25.67;;;21.77;;
15633;SDS011;14654;48.898;8.308;2023-03-05T09:07:19;23.50;;;19.23;;
15633;SDS011;14654;48.898;8.308;2023-03-05T09:09:44;23.90;;;19.03;;
15633;SDS011;14654;48.898;8.308;2023-03-05T09:12:09;23.57;;;20.00;;
15633;SDS011;14654;48.898;8.308;2023-03-05T09:14:37;21.40;;;18.57;;
15633;SDS011;14654;48.898;8.308;2023-03-05T09:17:02;19.93;;;17.83;;
15633;SDS011;14654;48.898;8.308;2023-03-05T09:19:28;20.63;;;17.77;;
15633;SDS011;14654;48.898;8.308;2023-03-05T09:21:54;19.70;;;16.53;;
15633;SDS011;14654;48.898;8.308;2023-03-05T09:24:19;18.43;;;16.17;;
15633;SDS011;14654;48.898;8.308;2023-03-05T09:26:44;21.03;;;17.77;;
15633;SDS011;14654;48.898;8.308;2023-03-05T09:29:10;20.10;;;17.53;;
15633;SDS011;14654;48.898;8.308;2023-03-05T09:31:36;21.97;;;17.87;;
15633;SDS011;14654;48.898;8.308;2023-03-05T09:34:01;21.80;;;19.07;;
15633;SDS011;14654;48.898;8.308;2023-03-05T09:36:29;21.70;;;18.33;;
15633;SDS011;14654;48.898;8.308;2023-03-05T09:38:55;20.10;;;17.13;;
15633;SDS011;14654;48.898;8.308;2023-03-05T09:41:26;18.20;;;16.27;;
15633;SDS011;14654;48.898;8.308;2023-03-05T09:44:05;31.63;;;25.77;;
15633;SDS011;14654;48.898;8.308;2023-03-05T09:52:13;26.27;;;21.03;;
15633;SDS011;14654;48.898;8.308;2023-03-05T09:54:42;27.83;;;24.83;;
15633;SDS011;14654;48.898;8.308;2023-03-05T09:57:16;26.93;;;24.17;;
15633;SDS011;14654;48.898;8.308;2023-03-05T09:59:47;23.07;;;20.67;;
15633;SDS011;14654;48.898;8.308;2023-03-05T10:02:19;21.27;;;18.43;;
15633;SDS011;14654;48.898;8.308;2023-03-05T10:04:51;19.83;;;16.83;;
15633;SDS011;14654;48.898;8.308;2023-03-05T10:07:32;20.87;;;17.83;;
15633;SDS011;14654;48.898;8.308;2023-03-05T10:26:14;16.47;;;14.60;;
15633;SDS011;14654;48.898;8.308;2023-03-05T10:37:43;16.67;;;14.87;;
15633;SDS011;14654;48.898;8.308;2023-03-05T10:40:19;15.97;;;14.27;;
15633;SDS011;14654;48.898;8.308;2023-03-05T10:43:07;21.07;;;17.70;;
15633;SDS011;14654;48.898;8.308;2023-03-05T10:45:40;18.00;;;15.07;;
15633;SDS011;14654;48.898;8.308;2023-03-05T10:51:09;24.97;;;19.40;;
15633;SDS011;14654;48.898;8.308;2023-03-05T10:53:55;20.10;;;16.93;;
15633;SDS011;14654;48.898;8.308;2023-03-05T10:56:24;17.00;;;15.20;;
15633;SDS011;14654;48.898;8.308;2023-03-05T10:58:51;16.10;;;14.43;;
15633;SDS011;14654;48.898;8.308;2023-03-05T11:01:18;19.17;;;14.93;;
15633;SDS011;14654;48.898;8.308;2023-03-05T11:06:41;15.60;;;13.93;;
15633;SDS011;14654;48.898;8.308;2023-03-05T11:12:01;15.43;;;13.80;;
15633;SDS011;14654;48.898;8.308;2023-03-05T11:14:36;16.03;;;14.33;;
15633;SDS011;14654;48.898;8.308;2023-03-05T11:17:24;16.60;;;14.57;;
15633;SDS011;14654;48.898;8.308;2023-03-05T11:19:55;15.87;;;14.23;;
15633;SDS011;14654;48.898;8.308;2023-03-05T11:22:23;16.90;;;15.20;;
15633;SDS011;14654;48.898;8.308;2023-03-05T11:27:38;17.00;;;15.20;;
15633;SDS011;14654;48.898;8.308;2023-03-05T11:30:18;16.60;;;14.90;;
15633;SDS011;14654;48.898;8.308;2023-03-05T11:32:48;15.70;;;13.57;;
15633;SDS011;14654;48.898;8.308;2023-03-05T11:35:33;14.57;;;13.10;;
15633;SDS011;14654;48.898;8.308;2023-03-05T11:38:00;13.53;;;12.23;;
15633;SDS011;14654;48.898;8.308;2023-03-05T11:40:28;15.10;;;13.27;;
15633;SDS011;14654;48.898;8.308;2023-03-05T11:42:57;15.53;;;13.93;;
15633;SDS011;14654;48.898;8.308;2023-03-05T11:45:24;14.93;;;13.40;;
15633;SDS011;14654;48.898;8.308;2023-03-05T11:47:53;16.30;;;14.60;;
15633;SDS011;14654;48.898;8.308;2023-03-05T11:52:49;15.23;;;13.63;;
15633;SDS011;14654;48.898;8.308;2023-03-05T11:55:20;15.40;;;13.67;;
15633;SDS011;14654;48.898;8.308;2023-03-05T11:58:03;13.80;;;12.40;;
15633;SDS011;14654;48.898;8.308;2023-03-05T12:00:36;15.77;;;13.53;;
15633;SDS011;14654;48.898;8.308;2023-03-05T12:03:03;14.77;;;13.17;;
15633;SDS011;14654;48.898;8.308;2023-03-05T12:05:34;15.63;;;14.03;;
15633;SDS011;14654;48.898;8.308;2023-03-05T12:08:01;15.50;;;13.43;;
15633;SDS011;14654;48.898;8.308;2023-03-05T12:10:27;15.37;;;13.00;;
15633;SDS011;14654;48.898;8.308;2023-03-05T12:23:45;14.63;;;13.13;;
15633;SDS011;14654;48.898;8.308;2023-03-05T12:26:15;17.30;;;15.13;;
15633;SDS011;14654;48.898;8.308;2023-03-05T12:33:39;17.30;;;15.40;;
15633;SDS011;14654;48.898;8.308;2023-03-05T12:36:53;17.67;;;15.87;;
15633;SDS011;14654;48.898;8.308;2023-03-05T12:38:57;25.10;;;20.20;;
15633;SDS011;14654;48.898;8.308;2023-03-05T12:46:28;22.93;;;20.53;;
15633;SDS011;14654;48.898;8.308;2023-03-05T12:48:56;21.63;;;19.13;;
15633;SDS011;14654;48.898;8.308;2023-03-05T12:51:34;20.37;;;17.50;;
15633;SDS011;14654;48.898;8.308;2023-03-05T12:57:19;15.80;;;13.93;;
15633;SDS011;14654;48.898;8.308;2023-03-05T12:59:49;15.63;;;13.83;;
15633;SDS011;14654;48.898;8.308;2023-03-05T13:04:54;14.40;;;12.90;;
15633;SDS011;14654;48.898;8.308;2023-03-05T13:07:22;17.30;;;15.07;;
15633;SDS011;14654;48.898;8.308;2023-03-05T13:09:52;19.10;;;15.77;;
15633;SDS011;14654;48.898;8.308;2023-03-05T13:12:19;20.63;;;18.30;;
15633;SDS011;14654;48.898;8.308;2023-03-05T13:14:45;20.70;;;17.97;;
15633;SDS011;14654;48.898;8.308;2023-03-05T13:20:03;25.67;;;20.07;;
15633;SDS011;14654;48.898;8.308;2023-03-05T13:23:02;20.70;;;18.50;;
15633;SDS011;14654;48.898;8.308;2023-03-05T13:25:39;22.57;;;19.07;;
15633;SDS011;14654;48.898;8.308;2023-03-05T13:28:15;22.90;;;17.30;;
15633;SDS011;14654;48.898;8.308;2023-03-05T13:30:44;20.93;;;17.90;;
15633;SDS011;14654;48.898;8.308;2023-03-05T13:33:16;17.20;;;15.33;;
15633;SDS011;14654;48.898;8.308;2023-03-05T13:35:44;16.67;;;14.47;;
15633;SDS011;14654;48.898;8.308;2023-03-05T13:43:29;19.10;;;17.10;;
15633;SDS011;14654;48.898;8.308;2023-03-05T13:45:55;25.07;;;22.37;;
15633;SDS011;14654;48.898;8.308;2023-03-05T13:48:22;22.13;;;19.83;;
15633;SDS011;14654;48.898;8.308;2023-03-05T13:50:52;20.53;;;18.37;;
15633;SDS011;14654;48.898;8.308;2023-03-05T13:53:24;17.77;;;15.87;;
15633;SDS011;14654;48.898;8.308;2023-03-05T13:55:58;18.30;;;15.83;;
15633;SDS011;14654;48.898;8.308;2023-03-05T14:01:20;15.83;;;14.13;;
15633;SDS011;14654;48.898;8.308;2023-03-05T14:03:52;17.07;;;15.13;;
15633;SDS011;14654;48.898;8.308;2023-03-05T14:06:21;17.67;;;14.60;;
15633;SDS011;14654;48.898;8.308;2023-03-05T14:08:53;17.63;;;15.73;;
15633;SDS011;14654;48.898;8.308;2023-03-05T14:11:25;17.10;;;13.47;;
15633;SDS011;14654;48.898;8.308;2023-03-05T14:14:03;16.70;;;14.40;;
15633;SDS011;14654;48.898;8.308;2023-03-05T14:16:32;15.13;;;13.53;;
15633;SDS011;14654;48.898;8.308;2023-03-05T14:19:02;15.30;;;13.43;;
15633;SDS011;14654;48.898;8.308;2023-03-05T14:21:44;17.17;;;13.77;;
15633;SDS011;14654;48.898;8.308;2023-03-05T14:24:13;13.43;;;12.03;;
15633;SDS011;14654;48.898;8.308;2023-03-05T14:26:49;14.87;;;12.87;;
15633;SDS011;14654;48.898;8.308;2023-03-05T14:29:17;16.30;;;13.93;;
15633;SDS011;14654;48.898;8.308;2023-03-05T14:34:11;17.43;;;14.07;;
15633;SDS011;14654;48.898;8.308;2023-03-05T14:36:50;17.77;;;15.73;;
15633;SDS011;14654;48.898;8.308;2023-03-05T14:39:24;17.43;;;14.97;;
15633;SDS011;14654;48.898;8.308;2023-03-05T14:41:51;16.87;;;15.00;;
15633;SDS011;14654;48.898;8.308;2023-03-05T14:44:16;16.63;;;14.37;;
15633;SDS011;14654;48.898;8.308;2023-03-05T14:46:47;19.17;;;17.03;;
15633;SDS011;14654;48.898;8.308;2023-03-05T14:49:13;17.30;;;15.07;;
15633;SDS011;14654;48.898;8.308;2023-03-05T14:51:40;16.60;;;14.80;;
15633;SDS011;14654;48.898;8.308;2023-03-05T14:54:16;18.57;;;15.83;;
15633;SDS011;14654;48.898;8.308;2023-03-05T14:56:43;18.70;;;16.03;;
15633;SDS011;14654;48.898;8.308;2023-03-05T14:59:08;17.00;;;15.07;;
15633;SDS011;14654;48.898;8.308;2023-03-05T15:01:34;17.73;;;15.80;;
15633;SDS011;14654;48.898;8.308;2023-03-05T15:03:59;16.53;;;14.40;;
15633;SDS011;14654;48.898;8.308;2023-03-05T15:06:32;17.40;;;15.07;;
15633;SDS011;14654;48.898;8.308;2023-03-05T15:09:00;16.30;;;14.10;;
15633;SDS011;14654;48.898;8.308;2023-03-05T15:11:28;16.27;;;13.03;;
15633;SDS011;14654;48.898;8.308;2023-03-05T15:13:54;15.03;;;13.43;;
15633;SDS011;14654;48.898;8.308;2023-03-05T15:16:19;17.40;;;14.23;;
15633;SDS011;14654;48.898;8.308;2023-03-05T15:18:46;16.67;;;14.57;;
15633;SDS011;14654;48.898;8.308;2023-03-05T15:21:12;16.50;;;14.60;;
15633;SDS011;14654;48.898;8.308;2023-03-05T15:23:37;18.63;;;16.10;;
15633;SDS011;14654;48.898;8.308;2023-03-05T15:26:07;20.07;;;15.20;;
15633;SDS011;14654;48.898;8.308;2023-03-05T15:28:34;16.50;;;14.77;;
15633;SDS011;14654;48.898;8.308;2023-03-05T15:31:00;16.87;;;14.70;;
15633;SDS011;14654;48.898;8.308;2023-03-05T15:33:26;16.07;;;14.27;;
15633;SDS011;14654;48.898;8.308;2023-03-05T15:35:52;17.07;;;15.27;;
15633;SDS011;14654;48.898;8.308;2023-03-05T15:38:18;16.73;;;14.77;;
15633;SDS011;14654;48.898;8.308;2023-03-05T15:40:43;19.23;;;15.60;;
15633;SDS011;14654;48.898;8.308;2023-03-05T15:43:09;17.87;;;15.30;;
15633;SDS011;14654;48.898;8.308;2023-03-05T15:45:35;17.27;;;14.90;;
15633;SDS011;14654;48.898;8.308;2023-03-05T15:48:00;17.47;;;15.57;;
15633;SDS011;14654;48.898;8.308;2023-03-05T15:50:25;17.70;;;14.97;;
15633;SDS011;14654;48.898;8.308;2023-03-05T15:52:51;16.23;;;14.53;;
15633;SDS011;14654;48.898;8.308;2023-03-05T15:55:16;18.10;;;15.07;;